sensor_id;sensor_type;location;lat;lon;timestamp;temperature;humidity
65559;DHT22;52203;51.998;5.140;2024-02-21T00:01:42;13.69;118.99
65559;DHT22;52203;51.998;5.140;2024-02-21T00:04:08;13.67;118.99
65559;DHT22;52203;51.998;5.140;2024-02-21T00:06:33;13.67;118.99
65559;DHT22;52203;51.998;5.140;2024-02-21T00:08:59;13.64;118.99
65559;DHT22;52203;51.998;5.140;2024-02-21T00:11:24;13.66;118.99
65559;DHT22;52203;51.998;5.140;2024-02-21T00:13:50;13.62;118.99
65559;DHT22;52203;51.998;5.140;2024-02-21T00:16:16;13.61;118.99
65559;DHT22;52203;51.998;5.140;2024-02-21T00:18:43;13.60;118.99
65559;DHT22;52203;51.998;5.140;2024-02-21T00:21:08;13.61;118.99
65559;DHT22;52203;51.998;5.140;2024-02-21T00:23:34;13.61;118.99
65559;DHT22;52203;51.998;5.140;2024-02-21T00:25:59;13.60;118.99
65559;DHT22;52203;51.998;5.140;2024-02-21T00:28:25;13.62;118.99
65559;DHT22;52203;51.998;5.140;2024-02-21T00:30:50;13.60;118.99
65559;DHT22;52203;51.998;5.140;2024-02-21T00:33:18;13.61;118.99
65559;DHT22;52203;51.998;5.140;2024-02-21T00:35:46;13.54;118.99
65559;DHT22;52203;51.998;5.140;2024-02-21T00:38:12;13.60;118.99
65559;DHT22;52203;51.998;5.140;2024-02-21T00:40:37;13.56;118.99
65559;DHT22;52203;51.998;5.140;2024-02-21T00:43:03;13.54;118.99
65559;DHT22;52203;51.998;5.140;2024-02-21T00:45:29;13.55;118.99
65559;DHT22;52203;51.998;5.140;2024-02-21T00:47:54;13.55;118.99
65559;DHT22;52203;51.998;5.140;2024-02-21T00:50:20;13.55;118.99
65559;DHT22;52203;51.998;5.140;2024-02-21T00:52:48;13.52;118.99
65559;DHT22;52203;51.998;5.140;2024-02-21T00:55:14;13.54;118.99
65559;DHT22;52203;51.998;5.140;2024-02-21T00:57:39;13.53;118.99
65559;DHT22;52203;51.998;5.140;2024-02-21T01:00:05;13.55;118.99
65559;DHT22;52203;51.998;5.140;2024-02-21T01:02:32;13.50;118.99
65559;DHT22;52203;51.998;5.140;2024-02-21T01:04:58;13.52;118.99
65559;DHT22;52203;51.998;5.140;2024-02-21T01:07:25;13.52;118.99
65559;DHT22;52203;51.998;5.140;2024-02-21T01:09:51;13.49;118.99
65559;DHT22;52203;51.998;5.140;2024-02-21T01:12:18;13.49;118.99
65559;DHT22;52203;51.998;5.140;2024-02-21T01:14:44;13.49;118.99
65559;DHT22;52203;51.998;5.140;2024-02-21T01:17:11;13.47;118.99
65559;DHT22;52203;51.998;5.140;2024-02-21T01:19:36;13.49;118.99
65559;DHT22;52203;51.998;5.140;2024-02-21T01:22:02;13.46;118.99
65559;DHT22;52203;51.998;5.140;2024-02-21T01:24:28;13.47;118.99
65559;DHT22;52203;51.998;5.140;2024-02-21T01:26:53;13.46;118.99
65559;DHT22;52203;51.998;5.140;2024-02-21T01:29:19;13.45;118.99
65559;DHT22;52203;51.998;5.140;2024-02-21T01:31:44;13.41;118.99
65559;DHT22;52203;51.998;5.140;2024-02-21T01:34:11;13.41;118.99
65559;DHT22;52203;51.998;5.140;2024-02-21T01:36:36;13.44;118.99
65559;DHT22;52203;51.998;5.140;2024-02-21T01:39:02;13.43;118.99
65559;DHT22;52203;51.998;5.140;2024-02-21T01:41:30;13.44;118.99
65559;DHT22;52203;51.998;5.140;2024-02-21T01:43:55;13.44;118.99
65559;DHT22;52203;51.998;5.140;2024-02-21T01:46:21;13.41;118.99
65559;DHT22;52203;51.998;5.140;2024-02-21T01:48:47;13.43;118.99
65559;DHT22;52203;51.998;5.140;2024-02-21T01:51:13;13.40;118.99
65559;DHT22;52203;51.998;5.140;2024-02-21T01:53:42;13.37;118.99
65559;DHT22;52203;51.998;5.140;2024-02-21T01:56:08;13.38;118.99
65559;DHT22;52203;51.998;5.140;2024-02-21T01:58:36;13.38;118.99
65559;DHT22;52203;51.998;5.140;2024-02-21T02:01:05;13.36;118.99
65559;DHT22;52203;51.998;5.140;2024-02-21T02:03:31;13.36;118.99
65559;DHT22;52203;51.998;5.140;2024-02-21T02:05:56;13.37;118.99
65559;DHT22;52203;51.998;5.140;2024-02-21T02:08:22;13.35;118.99
65559;DHT22;52203;51.998;5.140;2024-02-21T02:10:48;13.36;118.99
65559;DHT22;52203;51.998;5.140;2024-02-21T02:13:14;13.37;118.99
65559;DHT22;52203;51.998;5.140;2024-02-21T02:15:47;13.33;118.99
65559;DHT22;52203;51.998;5.140;2024-02-21T02:18:14;13.33;118.99
65559;DHT22;52203;51.998;5.140;2024-02-21T02:20:41;13.32;118.99
65559;DHT22;52203;51.998;5.140;2024-02-21T02:25:45;13.32;118.99
65559;DHT22;52203;51.998;5.140;2024-02-21T02:28:15;13.33;118.99
65559;DHT22;52203;51.998;5.140;2024-02-21T02:30:41;13.31;118.99
65559;DHT22;52203;51.998;5.140;2024-02-21T02:33:06;13.30;118.99
65559;DHT22;52203;51.998;5.140;2024-02-21T02:35:32;13.30;118.99
65559;DHT22;52203;51.998;5.140;2024-02-21T02:37:58;13.30;118.99
65559;DHT22;52203;51.998;5.140;2024-02-21T02:40:24;13.27;118.99
65559;DHT22;52203;51.998;5.140;2024-02-21T02:42:50;13.29;118.99
65559;DHT22;52203;51.998;5.140;2024-02-21T02:45:17;13.30;118.99
65559;DHT22;52203;51.998;5.140;2024-02-21T02:47:44;13.30;118.99
65559;DHT22;52203;51.998;5.140;2024-02-21T02:50:11;13.30;118.99
65559;DHT22;52203;51.998;5.140;2024-02-21T02:52:37;13.31;118.99
65559;DHT22;52203;51.998;5.140;2024-02-21T02:55:04;13.30;118.99
65559;DHT22;52203;51.998;5.140;2024-02-21T02:57:29;13.27;118.99
65559;DHT22;52203;51.998;5.140;2024-02-21T02:59:55;13.31;118.99
65559;DHT22;52203;51.998;5.140;2024-02-21T03:02:21;13.27;118.99
65559;DHT22;52203;51.998;5.140;2024-02-21T03:04:46;13.30;118.99
65559;DHT22;52203;51.998;5.140;2024-02-21T03:07:12;13.34;118.99
65559;DHT22;52203;51.998;5.140;2024-02-21T03:09:38;13.30;118.99
65559;DHT22;52203;51.998;5.140;2024-02-21T03:12:04;13.31;118.99
65559;DHT22;52203;51.998;5.140;2024-02-21T03:14:30;13.31;118.99
65559;DHT22;52203;51.998;5.140;2024-02-21T03:16:56;13.31;118.99
65559;DHT22;52203;51.998;5.140;2024-02-21T03:19:22;13.33;118.99
65559;DHT22;52203;51.998;5.140;2024-02-21T03:21:48;13.32;118.99
65559;DHT22;52203;51.998;5.140;2024-02-21T03:24:15;13.30;118.99
65559;DHT22;52203;51.998;5.140;2024-02-21T03:26:41;13.31;118.99
65559;DHT22;52203;51.998;5.140;2024-02-21T03:29:06;13.29;118.99
65559;DHT22;52203;51.998;5.140;2024-02-21T03:31:32;13.30;118.99
65559;DHT22;52203;51.998;5.140;2024-02-21T03:34:00;13.32;118.99
65559;DHT22;52203;51.998;5.140;2024-02-21T03:36:26;13.30;118.99
65559;DHT22;52203;51.998;5.140;2024-02-21T03:38:55;13.27;118.99
65559;DHT22;52203;51.998;5.140;2024-02-21T03:41:21;13.27;118.99
65559;DHT22;52203;51.998;5.140;2024-02-21T03:43:47;13.26;118.99
65559;DHT22;52203;51.998;5.140;2024-02-21T03:46:12;13.26;118.99
65559;DHT22;52203;51.998;5.140;2024-02-21T03:48:38;13.29;118.99
65559;DHT22;52203;51.998;5.140;2024-02-21T03:51:04;13.27;118.99
65559;DHT22;52203;51.998;5.140;2024-02-21T03:53:30;13.25;118.99
65559;DHT22;52203;51.998;5.140;2024-02-21T03:55:55;13.29;118.99
65559;DHT22;52203;51.998;5.140;2024-02-21T03:58:21;13.29;118.99
65559;DHT22;52203;51.998;5.140;2024-02-21T04:00:50;13.30;118.99
65559;DHT22;52203;51.998;5.140;2024-02-21T04:03:15;13.32;118.99
65559;DHT22;52203;51.998;5.140;2024-02-21T04:05:43;13.29;118.99
65559;DHT22;52203;51.998;5.140;2024-02-21T04:08:12;13.30;118.99
65559;DHT22;52203;51.998;5.140;2024-02-21T04:10:37;13.26;118.99
65559;DHT22;52203;51.998;5.140;2024-02-21T04:13:05;13.25;118.99
65559;DHT22;52203;51.998;5.140;2024-02-21T04:15:31;13.25;118.99
65559;DHT22;52203;51.998;5.140;2024-02-21T04:17:57;13.25;118.99
65559;DHT22;52203;51.998;5.140;2024-02-21T04:20:22;13.24;118.99
65559;DHT22;52203;51.998;5.140;2024-02-21T04:22:48;13.26;118.99
65559;DHT22;52203;51.998;5.140;2024-02-21T04:25:14;13.25;118.99
65559;DHT22;52203;51.998;5.140;2024-02-21T04:27:39;13.25;118.99
65559;DHT22;52203;51.998;5.140;2024-02-21T04:30:06;13.24;118.99
65559;DHT22;52203;51.998;5.140;2024-02-21T04:32:32;13.24;118.99
65559;DHT22;52203;51.998;5.140;2024-02-21T04:34:58;13.23;118.99
65559;DHT22;52203;51.998;5.140;2024-02-21T04:37:24;13.26;118.99
65559;DHT22;52203;51.998;5.140;2024-02-21T04:39:50;13.24;118.99
65559;DHT22;52203;51.998;5.140;2024-02-21T04:42:16;13.23;118.99
65559;DHT22;52203;51.998;5.140;2024-02-21T04:44:42;13.21;118.99
65559;DHT22;52203;51.998;5.140;2024-02-21T04:47:07;13.22;118.99
65559;DHT22;52203;51.998;5.140;2024-02-21T04:49:33;13.24;118.99
65559;DHT22;52203;51.998;5.140;2024-02-21T04:51:59;13.26;118.99
65559;DHT22;52203;51.998;5.140;2024-02-21T04:54:25;13.22;118.99
65559;DHT22;52203;51.998;5.140;2024-02-21T04:56:51;13.20;118.99
65559;DHT22;52203;51.998;5.140;2024-02-21T04:59:16;13.19;118.99
65559;DHT22;52203;51.998;5.140;2024-02-21T05:01:42;13.21;118.99
65559;DHT22;52203;51.998;5.140;2024-02-21T05:04:08;13.21;118.99
65559;DHT22;52203;51.998;5.140;2024-02-21T05:06:43;13.23;118.99
65559;DHT22;52203;51.998;5.140;2024-02-21T05:09:09;13.20;118.99
65559;DHT22;52203;51.998;5.140;2024-02-21T05:11:38;13.22;118.99
65559;DHT22;52203;51.998;5.140;2024-02-21T05:14:04;13.21;118.99
65559;DHT22;52203;51.998;5.140;2024-02-21T05:16:30;13.18;118.99
65559;DHT22;52203;51.998;5.140;2024-02-21T05:18:56;13.21;118.99
65559;DHT22;52203;51.998;5.140;2024-02-21T05:21:25;13.21;118.99
65559;DHT22;52203;51.998;5.140;2024-02-21T05:23:51;13.21;118.99
65559;DHT22;52203;51.998;5.140;2024-02-21T05:26:21;13.18;118.99
65559;DHT22;52203;51.998;5.140;2024-02-21T05:28:47;13.18;118.99
65559;DHT22;52203;51.998;5.140;2024-02-21T05:31:12;13.17;118.99
65559;DHT22;52203;51.998;5.140;2024-02-21T05:33:39;13.16;118.99
65559;DHT22;52203;51.998;5.140;2024-02-21T05:36:05;13.16;118.99
65559;DHT22;52203;51.998;5.140;2024-02-21T05:38:31;13.15;118.99
65559;DHT22;52203;51.998;5.140;2024-02-21T05:40:56;13.15;118.99
65559;DHT22;52203;51.998;5.140;2024-02-21T05:43:22;13.12;118.99
65559;DHT22;52203;51.998;5.140;2024-02-21T05:45:50;13.16;118.99
65559;DHT22;52203;51.998;5.140;2024-02-21T05:48:16;13.12;118.99
65559;DHT22;52203;51.998;5.140;2024-02-21T05:50:44;13.11;118.99
65559;DHT22;52203;51.998;5.140;2024-02-21T05:53:10;13.10;118.99
65559;DHT22;52203;51.998;5.140;2024-02-21T05:55:38;13.10;118.99
65559;DHT22;52203;51.998;5.140;2024-02-21T05:58:04;13.10;118.99
65559;DHT22;52203;51.998;5.140;2024-02-21T06:00:31;13.11;118.99
65559;DHT22;52203;51.998;5.140;2024-02-21T06:02:57;13.11;118.99
65559;DHT22;52203;51.998;5.140;2024-02-21T06:05:22;13.08;118.99
65559;DHT22;52203;51.998;5.140;2024-02-21T06:07:48;13.09;118.99
65559;DHT22;52203;51.998;5.140;2024-02-21T06:10:14;13.09;118.99
65559;DHT22;52203;51.998;5.140;2024-02-21T06:12:39;13.10;118.99
65559;DHT22;52203;51.998;5.140;2024-02-21T06:15:05;13.08;118.99
65559;DHT22;52203;51.998;5.140;2024-02-21T06:17:31;13.08;118.99
65559;DHT22;52203;51.998;5.140;2024-02-21T06:19:56;13.09;118.99
65559;DHT22;52203;51.998;5.140;2024-02-21T06:22:22;13.11;118.99
65559;DHT22;52203;51.998;5.140;2024-02-21T06:24:48;13.08;118.99
65559;DHT22;52203;51.998;5.140;2024-02-21T06:27:19;13.04;118.99
65559;DHT22;52203;51.998;5.140;2024-02-21T06:29:45;13.07;118.99
65559;DHT22;52203;51.998;5.140;2024-02-21T06:32:10;13.07;118.99
65559;DHT22;52203;51.998;5.140;2024-02-21T06:34:36;13.06;118.99
65559;DHT22;52203;51.998;5.140;2024-02-21T06:37:01;13.05;118.99
65559;DHT22;52203;51.998;5.140;2024-02-21T06:39:27;13.04;118.99
65559;DHT22;52203;51.998;5.140;2024-02-21T06:41:54;13.05;118.99
65559;DHT22;52203;51.998;5.140;2024-02-21T06:44:20;13.01;118.99
65559;DHT22;52203;51.998;5.140;2024-02-21T06:46:46;13.01;118.99
65559;DHT22;52203;51.998;5.140;2024-02-21T06:49:11;12.99;118.99
65559;DHT22;52203;51.998;5.140;2024-02-21T06:51:44;12.97;118.99
65559;DHT22;52203;51.998;5.140;2024-02-21T06:54:10;12.96;118.99
65559;DHT22;52203;51.998;5.140;2024-02-21T06:56:36;12.93;118.99
65559;DHT22;52203;51.998;5.140;2024-02-21T06:59:01;12.94;118.99
65559;DHT22;52203;51.998;5.140;2024-02-21T07:01:29;12.95;118.99
65559;DHT22;52203;51.998;5.140;2024-02-21T07:03:54;12.95;118.99
65559;DHT22;52203;51.998;5.140;2024-02-21T07:06:20;12.96;118.99
65559;DHT22;52203;51.998;5.140;2024-02-21T07:08:45;12.93;118.99
65559;DHT22;52203;51.998;5.140;2024-02-21T07:11:11;12.95;118.99
65559;DHT22;52203;51.998;5.140;2024-02-21T07:13:36;12.96;118.99
65559;DHT22;52203;51.998;5.140;2024-02-21T07:16:02;12.94;118.99
65559;DHT22;52203;51.998;5.140;2024-02-21T07:18:28;12.91;118.99
65559;DHT22;52203;51.998;5.140;2024-02-21T07:20:53;12.92;118.99
65559;DHT22;52203;51.998;5.140;2024-02-21T07:23:19;12.89;118.99
65559;DHT22;52203;51.998;5.140;2024-02-21T07:25:44;12.92;118.99
65559;DHT22;52203;51.998;5.140;2024-02-21T07:28:10;12.96;118.99
65559;DHT22;52203;51.998;5.140;2024-02-21T07:30:36;12.89;118.99
65559;DHT22;52203;51.998;5.140;2024-02-21T07:33:02;12.89;118.99
65559;DHT22;52203;51.998;5.140;2024-02-21T07:35:28;12.92;118.99
65559;DHT22;52203;51.998;5.140;2024-02-21T07:37:56;12.94;118.99
65559;DHT22;52203;51.998;5.140;2024-02-21T07:40:23;12.93;118.99
65559;DHT22;52203;51.998;5.140;2024-02-21T07:42:48;12.92;118.99
65559;DHT22;52203;51.998;5.140;2024-02-21T07:45:14;12.94;118.99
65559;DHT22;52203;51.998;5.140;2024-02-21T07:47:40;12.94;118.99
65559;DHT22;52203;51.998;5.140;2024-02-21T07:50:08;12.99;118.99
65559;DHT22;52203;51.998;5.140;2024-02-21T07:52:34;13.03;118.99
65559;DHT22;52203;51.998;5.140;2024-02-21T07:55:02;12.99;118.99
65559;DHT22;52203;51.998;5.140;2024-02-21T07:57:28;13.30;118.99
65559;DHT22;52203;51.998;5.140;2024-02-21T07:59:54;13.41;118.99
65559;DHT22;52203;51.998;5.140;2024-02-21T08:02:19;13.46;118.99
65559;DHT22;52203;51.998;5.140;2024-02-21T08:04:45;13.45;118.99
65559;DHT22;52203;51.998;5.140;2024-02-21T08:07:10;13.51;118.99
65559;DHT22;52203;51.998;5.140;2024-02-21T08:09:36;13.52;118.99
65559;DHT22;52203;51.998;5.140;2024-02-21T08:12:04;13.58;118.99
65559;DHT22;52203;51.998;5.140;2024-02-21T08:14:30;13.54;118.99
65559;DHT22;52203;51.998;5.140;2024-02-21T08:16:55;13.50;118.99
65559;DHT22;52203;51.998;5.140;2024-02-21T08:19:21;13.46;118.99
65559;DHT22;52203;51.998;5.140;2024-02-21T08:21:50;13.44;118.99
65559;DHT22;52203;51.998;5.140;2024-02-21T08:24:16;13.47;118.99
65559;DHT22;52203;51.998;5.140;2024-02-21T08:26:42;13.45;118.99
65559;DHT22;52203;51.998;5.140;2024-02-21T08:29:10;13.44;118.99
65559;DHT22;52203;51.998;5.140;2024-02-21T08:31:35;13.44;118.99
65559;DHT22;52203;51.998;5.140;2024-02-21T08:34:01;13.44;118.99
65559;DHT22;52203;51.998;5.140;2024-02-21T08:36:33;13.46;118.99
65559;DHT22;52203;51.998;5.140;2024-02-21T08:39:00;13.50;118.99
65559;DHT22;52203;51.998;5.140;2024-02-21T08:41:25;13.50;118.99
65559;DHT22;52203;51.998;5.140;2024-02-21T08:43:52;13.49;118.99
65559;DHT22;52203;51.998;5.140;2024-02-21T08:46:20;13.47;118.99
65559;DHT22;52203;51.998;5.140;2024-02-21T08:48:46;13.55;118.99
65559;DHT22;52203;51.998;5.140;2024-02-21T08:51:15;13.54;118.99
65559;DHT22;52203;51.998;5.140;2024-02-21T08:53:40;13.54;118.99
65559;DHT22;52203;51.998;5.140;2024-02-21T08:56:06;13.53;118.99
65559;DHT22;52203;51.998;5.140;2024-02-21T08:58:36;13.51;118.99
65559;DHT22;52203;51.998;5.140;2024-02-21T09:01:03;13.32;118.99
65559;DHT22;52203;51.998;5.140;2024-02-21T09:03:33;13.10;118.99
65559;DHT22;52203;51.998;5.140;2024-02-21T09:06:00;13.11;118.99
65559;DHT22;52203;51.998;5.140;2024-02-21T09:08:26;13.18;118.99
65559;DHT22;52203;51.998;5.140;2024-02-21T09:10:52;13.16;118.99
65559;DHT22;52203;51.998;5.140;2024-02-21T09:13:17;13.22;118.99
65559;DHT22;52203;51.998;5.140;2024-02-21T09:15:43;13.04;118.99
65559;DHT22;52203;51.998;5.140;2024-02-21T09:18:09;13.18;118.99
65559;DHT22;52203;51.998;5.140;2024-02-21T09:20:35;13.18;118.99
65559;DHT22;52203;51.998;5.140;2024-02-21T09:23:01;13.10;118.99
65559;DHT22;52203;51.998;5.140;2024-02-21T09:25:26;13.07;118.99
65559;DHT22;52203;51.998;5.140;2024-02-21T09:27:54;13.14;118.99
65559;DHT22;52203;51.998;5.140;2024-02-21T09:30:20;13.17;118.99
65559;DHT22;52203;51.998;5.140;2024-02-21T09:32:46;13.19;118.99
65559;DHT22;52203;51.998;5.140;2024-02-21T09:35:12;13.17;118.99
65559;DHT22;52203;51.998;5.140;2024-02-21T09:37:38;13.20;118.99
65559;DHT22;52203;51.998;5.140;2024-02-21T09:40:04;13.21;118.99
65559;DHT22;52203;51.998;5.140;2024-02-21T09:42:40;13.35;118.99
65559;DHT22;52203;51.998;5.140;2024-02-21T09:45:23;13.31;118.99
65559;DHT22;52203;51.998;5.140;2024-02-21T09:47:56;13.21;118.99
65559;DHT22;52203;51.998;5.140;2024-02-21T09:50:23;13.31;118.99
65559;DHT22;52203;51.998;5.140;2024-02-21T09:52:51;13.24;118.99
65559;DHT22;52203;51.998;5.140;2024-02-21T09:55:18;13.21;118.99
65559;DHT22;52203;51.998;5.140;2024-02-21T09:57:44;13.19;118.99
65559;DHT22;52203;51.998;5.140;2024-02-21T10:00:10;13.19;118.99
65559;DHT22;52203;51.998;5.140;2024-02-21T10:02:39;13.21;118.99
65559;DHT22;52203;51.998;5.140;2024-02-21T10:05:05;13.19;118.99
65559;DHT22;52203;51.998;5.140;2024-02-21T10:07:33;13.19;118.99
65559;DHT22;52203;51.998;5.140;2024-02-21T10:10:03;13.20;118.99
65559;DHT22;52203;51.998;5.140;2024-02-21T10:12:29;13.23;118.99
65559;DHT22;52203;51.998;5.140;2024-02-21T10:15:05;13.23;118.99
65559;DHT22;52203;51.998;5.140;2024-02-21T10:17:32;13.23;118.99
65559;DHT22;52203;51.998;5.140;2024-02-21T10:20:08;13.37;118.99
65559;DHT22;52203;51.998;5.140;2024-02-21T10:22:34;13.47;118.99
65559;DHT22;52203;51.998;5.140;2024-02-21T10:25:12;13.32;118.99
65559;DHT22;52203;51.998;5.140;2024-02-21T10:27:40;13.23;118.99
65559;DHT22;52203;51.998;5.140;2024-02-21T10:30:14;13.22;118.99
65559;DHT22;52203;51.998;5.140;2024-02-21T10:35:36;13.20;118.99
65559;DHT22;52203;51.998;5.140;2024-02-21T10:38:02;13.25;118.99
65559;DHT22;52203;51.998;5.140;2024-02-21T10:40:29;13.20;118.99
65559;DHT22;52203;51.998;5.140;2024-02-21T10:43:00;13.18;118.99
65559;DHT22;52203;51.998;5.140;2024-02-21T10:45:36;13.25;118.99
65559;DHT22;52203;51.998;5.140;2024-02-21T10:48:13;13.45;118.99
65559;DHT22;52203;51.998;5.140;2024-02-21T10:53:50;13.32;118.99
65559;DHT22;52203;51.998;5.140;2024-02-21T10:56:28;13.25;118.99
65559;DHT22;52203;51.998;5.140;2024-02-21T10:58:54;13.18;118.99
65559;DHT22;52203;51.998;5.140;2024-02-21T11:01:23;13.12;118.99
65559;DHT22;52203;51.998;5.140;2024-02-21T11:03:54;13.11;118.99
65559;DHT22;52203;51.998;5.140;2024-02-21T11:06:21;13.12;118.99
65559;DHT22;52203;51.998;5.140;2024-02-21T11:08:47;13.12;118.99
65559;DHT22;52203;51.998;5.140;2024-02-21T11:11:14;13.14;118.99
65559;DHT22;52203;51.998;5.140;2024-02-21T11:13:43;13.16;118.99
65559;DHT22;52203;51.998;5.140;2024-02-21T11:16:20;13.14;118.99
65559;DHT22;52203;51.998;5.140;2024-02-21T11:18:47;13.12;118.99
65559;DHT22;52203;51.998;5.140;2024-02-21T11:21:12;13.29;118.99
65559;DHT22;52203;51.998;5.140;2024-02-21T11:23:38;13.27;118.99
65559;DHT22;52203;51.998;5.140;2024-02-21T11:26:07;13.23;118.99
65559;DHT22;52203;51.998;5.140;2024-02-21T11:28:33;13.21;118.99
65559;DHT22;52203;51.998;5.140;2024-02-21T11:31:10;13.20;118.99
65559;DHT22;52203;51.998;5.140;2024-02-21T11:33:42;13.21;118.99
65559;DHT22;52203;51.998;5.140;2024-02-21T11:36:10;13.27;118.99
65559;DHT22;52203;51.998;5.140;2024-02-21T11:38:36;13.30;118.99
65559;DHT22;52203;51.998;5.140;2024-02-21T11:41:02;13.35;118.99
65559;DHT22;52203;51.998;5.140;2024-02-21T11:43:28;13.41;118.99
65559;DHT22;52203;51.998;5.140;2024-02-21T11:46:03;13.46;118.99
65559;DHT22;52203;51.998;5.140;2024-02-21T11:48:31;13.46;118.99
65559;DHT22;52203;51.998;5.140;2024-02-21T11:50:57;13.46;118.99
65559;DHT22;52203;51.998;5.140;2024-02-21T11:53:23;13.48;118.99
65559;DHT22;52203;51.998;5.140;2024-02-21T11:55:49;13.52;118.99
65559;DHT22;52203;51.998;5.140;2024-02-21T11:58:15;13.64;118.99
65559;DHT22;52203;51.998;5.140;2024-02-21T12:00:41;13.54;118.99
65559;DHT22;52203;51.998;5.140;2024-02-21T12:03:07;13.47;118.99
65559;DHT22;52203;51.998;5.140;2024-02-21T12:05:33;13.43;118.99
65559;DHT22;52203;51.998;5.140;2024-02-21T12:08:03;13.37;118.99
65559;DHT22;52203;51.998;5.140;2024-02-21T12:10:29;13.39;118.99
65559;DHT22;52203;51.998;5.140;2024-02-21T12:13:05;13.36;118.99
65559;DHT22;52203;51.998;5.140;2024-02-21T12:15:32;13.40;118.99
65559;DHT22;52203;51.998;5.140;2024-02-21T12:17:58;13.34;118.99
65559;DHT22;52203;51.998;5.140;2024-02-21T12:20:25;13.40;118.99
65559;DHT22;52203;51.998;5.140;2024-02-21T12:22:51;13.39;118.99
65559;DHT22;52203;51.998;5.140;2024-02-21T12:25:19;13.40;118.99
65559;DHT22;52203;51.998;5.140;2024-02-21T12:27:46;13.35;118.99
65559;DHT22;52203;51.998;5.140;2024-02-21T12:30:12;13.32;118.99
65559;DHT22;52203;51.998;5.140;2024-02-21T12:32:37;13.27;118.99
65559;DHT22;52203;51.998;5.140;2024-02-21T12:35:03;13.31;118.99
65559;DHT22;52203;51.998;5.140;2024-02-21T12:37:29;13.34;118.99
65559;DHT22;52203;51.998;5.140;2024-02-21T12:39:55;13.34;118.99
65559;DHT22;52203;51.998;5.140;2024-02-21T12:42:20;13.33;118.99
65559;DHT22;52203;51.998;5.140;2024-02-21T12:44:46;13.35;118.99
65559;DHT22;52203;51.998;5.140;2024-02-21T12:47:14;13.34;118.99
65559;DHT22;52203;51.998;5.140;2024-02-21T12:49:40;13.33;118.99
65559;DHT22;52203;51.998;5.140;2024-02-21T12:52:06;13.32;118.99
65559;DHT22;52203;51.998;5.140;2024-02-21T12:54:32;13.34;118.99
65559;DHT22;52203;51.998;5.140;2024-02-21T12:56:57;13.31;118.99
65559;DHT22;52203;51.998;5.140;2024-02-21T12:59:23;13.32;118.99
65559;DHT22;52203;51.998;5.140;2024-02-21T13:01:49;13.32;118.99
65559;DHT22;52203;51.998;5.140;2024-02-21T13:04:14;13.33;118.99
65559;DHT22;52203;51.998;5.140;2024-02-21T13:06:40;13.31;118.99
65559;DHT22;52203;51.998;5.140;2024-02-21T13:09:05;13.31;118.99
65559;DHT22;52203;51.998;5.140;2024-02-21T13:11:34;13.29;118.99
65559;DHT22;52203;51.998;5.140;2024-02-21T13:14:00;13.26;118.99
65559;DHT22;52203;51.998;5.140;2024-02-21T13:16:26;13.27;118.99
65559;DHT22;52203;51.998;5.140;2024-02-21T13:18:52;13.25;118.99
65559;DHT22;52203;51.998;5.140;2024-02-21T13:21:18;13.22;118.99
65559;DHT22;52203;51.998;5.140;2024-02-21T13:23:44;13.24;118.99
65559;DHT22;52203;51.998;5.140;2024-02-21T13:26:12;13.21;118.99
65559;DHT22;52203;51.998;5.140;2024-02-21T13:28:38;13.22;118.99
65559;DHT22;52203;51.998;5.140;2024-02-21T13:31:03;13.23;118.99
65559;DHT22;52203;51.998;5.140;2024-02-21T13:33:29;13.24;118.99
65559;DHT22;52203;51.998;5.140;2024-02-21T13:35:55;13.23;118.99
65559;DHT22;52203;51.998;5.140;2024-02-21T13:38:21;13.23;118.99
65559;DHT22;52203;51.998;5.140;2024-02-21T13:40:46;13.22;118.99
65559;DHT22;52203;51.998;5.140;2024-02-21T13:43:12;13.22;118.99
65559;DHT22;52203;51.998;5.140;2024-02-21T13:45:38;13.21;118.99
65559;DHT22;52203;51.998;5.140;2024-02-21T13:48:04;13.21;118.99
65559;DHT22;52203;51.998;5.140;2024-02-21T13:50:31;13.17;118.99
65559;DHT22;52203;51.998;5.140;2024-02-21T13:52:59;13.17;118.99
65559;DHT22;52203;51.998;5.140;2024-02-21T13:55:26;13.18;118.99
65559;DHT22;52203;51.998;5.140;2024-02-21T13:57:52;13.24;118.99
65559;DHT22;52203;51.998;5.140;2024-02-21T14:00:18;13.22;118.99
65559;DHT22;52203;51.998;5.140;2024-02-21T14:02:44;13.19;118.99
65559;DHT22;52203;51.998;5.140;2024-02-21T14:05:10;13.15;118.99
65559;DHT22;52203;51.998;5.140;2024-02-21T14:07:36;13.12;118.99
65559;DHT22;52203;51.998;5.140;2024-02-21T14:10:01;13.23;118.99
65559;DHT22;52203;51.998;5.140;2024-02-21T14:12:29;13.19;118.99
65559;DHT22;52203;51.998;5.140;2024-02-21T14:14:54;13.24;118.99
65559;DHT22;52203;51.998;5.140;2024-02-21T14:17:25;13.21;118.99
65559;DHT22;52203;51.998;5.140;2024-02-21T14:19:51;13.19;118.99
65559;DHT22;52203;51.998;5.140;2024-02-21T14:22:17;13.15;118.99
65559;DHT22;52203;51.998;5.140;2024-02-21T14:24:43;13.11;118.99
65559;DHT22;52203;51.998;5.140;2024-02-21T14:27:08;13.10;118.99
65559;DHT22;52203;51.998;5.140;2024-02-21T14:29:34;13.16;118.99
65559;DHT22;52203;51.998;5.140;2024-02-21T14:32:00;13.25;118.99
65559;DHT22;52203;51.998;5.140;2024-02-21T14:34:25;13.26;118.99
65559;DHT22;52203;51.998;5.140;2024-02-21T14:36:51;13.23;118.99
65559;DHT22;52203;51.998;5.140;2024-02-21T14:39:17;13.17;118.99
65559;DHT22;52203;51.998;5.140;2024-02-21T14:41:43;13.15;118.99
65559;DHT22;52203;51.998;5.140;2024-02-21T14:44:09;13.14;118.99
65559;DHT22;52203;51.998;5.140;2024-02-21T14:46:35;13.15;118.99
65559;DHT22;52203;51.998;5.140;2024-02-21T14:49:01;13.25;118.99
65559;DHT22;52203;51.998;5.140;2024-02-21T14:51:26;13.16;118.99
65559;DHT22;52203;51.998;5.140;2024-02-21T14:53:52;13.26;118.99
65559;DHT22;52203;51.998;5.140;2024-02-21T14:56:18;13.23;118.99
65559;DHT22;52203;51.998;5.140;2024-02-21T14:58:43;13.10;118.99
65559;DHT22;52203;51.998;5.140;2024-02-21T15:01:12;13.14;118.99
65559;DHT22;52203;51.998;5.140;2024-02-21T15:03:38;13.02;118.99
65559;DHT22;52203;51.998;5.140;2024-02-21T15:06:04;12.92;118.99
65559;DHT22;52203;51.998;5.140;2024-02-21T15:08:29;12.94;118.99
65559;DHT22;52203;51.998;5.140;2024-02-21T15:10:55;12.95;118.99
65559;DHT22;52203;51.998;5.140;2024-02-21T15:13:24;13.03;118.99
65559;DHT22;52203;51.998;5.140;2024-02-21T15:15:49;12.96;118.99
65559;DHT22;52203;51.998;5.140;2024-02-21T15:18:17;12.96;118.99
65559;DHT22;52203;51.998;5.140;2024-02-21T15:20:42;12.94;118.99